createdAt,value
2022-11-23T00:00:46.003Z,6.00
2022-11-23T00:06:09.162Z,6.77
2022-11-23T00:11:34.413Z,8.40
2022-11-23T00:16:58.822Z,8.73
2022-11-23T00:22:22.187Z,6.13
2022-11-23T00:27:45.326Z,8.33
2022-11-23T00:33:09.875Z,8.73
2022-11-23T00:38:33.517Z,7.67
2022-11-23T00:43:56.664Z,8.70
2022-11-23T00:49:22.205Z,7.37
2022-11-23T00:54:45.326Z,7.40
2022-11-23T01:00:09.739Z,8.53
2022-11-23T01:05:37.270Z,9.23
2022-11-23T01:11:01.857Z,8.77
2022-11-23T01:16:26.479Z,7.47
2022-11-23T01:21:51.518Z,8.13
2022-11-23T01:27:14.606Z,6.27
2022-11-23T01:32:37.682Z,6.47
2022-11-23T01:38:02.150Z,7.33
2022-11-23T01:43:25.363Z,6.33
2022-11-23T01:48:50.685Z,6.13
2022-11-23T01:54:18.218Z,6.07
2022-11-23T01:59:41.591Z,7.30
2022-11-23T02:05:05.643Z,6.83
2022-11-23T02:10:30.796Z,6.80
2022-11-23T02:15:54.435Z,7.10
2022-11-23T02:21:17.654Z,8.50
2022-11-23T02:26:44.512Z,8.00
2022-11-23T02:32:07.610Z,9.07
2022-11-23T02:37:30.818Z,9.53
2022-11-23T02:42:55.492Z,10.00
2022-11-23T02:54:00.420Z,8.67
2022-11-23T02:59:24.974Z,9.27
2022-11-23T03:04:49.205Z,8.77
2022-11-23T03:10:16.013Z,10.13
2022-11-23T03:15:41.601Z,10.50
2022-11-23T03:21:08.853Z,9.40
2022-11-23T03:26:34.139Z,10.17
2022-11-23T03:32:07.234Z,10.77
2022-11-23T03:37:30.890Z,9.57
2022-11-23T03:42:54.527Z,9.97
2022-11-23T03:48:19.371Z,9.53
2022-11-23T03:53:42.698Z,8.83
2022-11-23T03:59:06.083Z,10.30
2022-11-23T04:04:30.638Z,8.63
2022-11-23T04:09:59.838Z,9.03
2022-11-23T04:15:40.858Z,9.93
2022-11-23T04:21:06.807Z,9.10
2022-11-23T04:26:29.996Z,11.33
2022-11-23T04:31:53.423Z,10.10
2022-11-23T04:37:19.064Z,9.13
2022-11-23T04:42:42.315Z,9.43
2022-11-23T04:48:06.305Z,8.83
2022-11-23T04:53:32.519Z,9.07
2022-11-23T04:58:56.689Z,10.97
2022-11-23T05:04:20.952Z,8.83
2022-11-23T05:09:47.109Z,8.63
2022-11-23T05:15:15.304Z,10.37
2022-11-23T05:20:39.053Z,7.37
2022-11-23T05:26:03.577Z,8.43
2022-11-23T05:31:28.170Z,8.13
2022-11-23T05:36:51.426Z,8.77
2022-11-23T05:42:16.877Z,7.43
2022-11-23T05:47:40.286Z,7.00
2022-11-23T05:53:12.231Z,6.67
2022-11-23T05:58:38.083Z,8.40
2022-11-23T06:04:01.394Z,7.47
2022-11-23T06:09:30.299Z,8.57
2022-11-23T06:15:02.599Z,7.90
2022-11-23T06:20:27.113Z,8.70
2022-11-23T06:25:55.391Z,10.10
2022-11-23T06:31:22.982Z,8.13
2022-11-23T06:36:46.324Z,7.50
2022-11-23T06:47:57.511Z,6.50
2022-11-23T06:53:21.757Z,9.00
2022-11-23T06:58:50.087Z,6.00
2022-11-23T07:04:19.754Z,6.60
2022-11-23T07:09:46.706Z,7.93
2022-11-23T07:15:23.611Z,7.93
2022-11-23T07:20:49.753Z,7.17
2022-11-23T07:26:12.918Z,7.33
2022-11-23T07:31:36.064Z,7.90
2022-11-23T07:37:02.272Z,7.90
2022-11-23T07:42:35.539Z,9.37
2022-11-23T07:48:01.494Z,9.80
2022-11-23T07:53:26.509Z,7.30
2022-11-23T07:58:49.695Z,5.43
2022-11-23T08:04:12.835Z,6.37
2022-11-23T08:09:37.429Z,7.03
2022-11-23T08:15:00.586Z,5.33
2022-11-23T08:20:23.809Z,4.67
2022-11-23T08:25:48.425Z,4.07
2022-11-23T08:31:12.296Z,3.90
2022-11-23T08:36:35.449Z,3.93
2022-11-23T08:42:00.001Z,3.13
2022-11-23T08:47:23.081Z,3.37
2022-11-23T08:52:46.157Z,2.57
2022-11-23T08:58:13.506Z,3.07
2022-11-23T09:03:36.897Z,2.53
2022-11-23T09:09:00.093Z,2.00
2022-11-23T09:14:24.801Z,2.73
2022-11-23T09:19:47.951Z,1.87
2022-11-23T09:25:11.284Z,2.03
2022-11-23T09:30:35.939Z,2.43
2022-11-23T09:35:59.929Z,3.07
2022-11-23T09:41:40.378Z,3.13
2022-11-23T09:47:15.034Z,2.87
2022-11-23T09:52:40.493Z,3.37
2022-11-23T09:58:06.267Z,1.77
2022-11-23T10:03:43.941Z,2.40
2022-11-23T10:09:28.446Z,2.30
2022-11-23T10:15:00.186Z,2.00
2022-11-23T10:20:48.624Z,3.30
2022-11-23T10:26:13.537Z,2.93
2022-11-23T10:31:37.460Z,2.40
2022-11-23T10:37:02.001Z,2.00
2022-11-23T10:42:35.045Z,1.90
2022-11-23T10:47:59.910Z,2.10
2022-11-23T10:53:28.250Z,2.37
2022-11-23T10:58:51.334Z,1.97
2022-11-23T11:04:23.651Z,2.47
2022-11-23T11:09:51.963Z,1.70
2022-11-23T11:15:17.539Z,1.90
2022-11-23T11:20:40.758Z,1.63
2022-11-23T11:26:11.384Z,2.33
2022-11-23T11:31:46.580Z,1.83
2022-11-23T11:37:13.327Z,2.50
2022-11-23T11:42:39.966Z,2.27
2022-11-23T11:48:08.345Z,2.97
2022-11-23T11:53:34.875Z,2.50
2022-11-23T11:59:02.811Z,2.67
2022-11-23T12:04:32.156Z,2.07
2022-11-23T12:10:01.311Z,1.90
2022-11-23T12:21:24.836Z,1.80
2022-11-23T12:26:54.648Z,1.77
2022-11-23T12:32:26.750Z,2.10
2022-11-23T12:38:01.823Z,2.07
2022-11-23T12:43:33.569Z,2.07
2022-11-23T12:49:15.411Z,2.20
2022-11-23T12:54:47.881Z,1.67
2022-11-23T13:00:16.939Z,2.20
2022-11-23T13:06:06.818Z,2.70
2022-11-23T13:11:40.487Z,1.17
2022-11-23T13:17:11.130Z,1.90
2022-11-23T13:22:36.204Z,1.80
2022-11-23T13:28:01.867Z,1.73
2022-11-23T13:33:35.786Z,0.83
2022-11-23T13:39:02.411Z,2.57
2022-11-23T13:44:31.140Z,1.50
2022-11-23T13:50:10.084Z,1.87
2022-11-23T13:55:36.383Z,2.57
2022-11-23T14:01:00.520Z,1.53
2022-11-23T14:06:27.337Z,0.97
2022-11-23T14:12:01.576Z,1.17
2022-11-23T14:17:42.647Z,1.00
2022-11-23T14:23:17.992Z,1.90
2022-11-23T14:28:53.809Z,2.30
2022-11-23T14:34:23.972Z,1.20
2022-11-23T14:39:59.019Z,1.60
2022-11-23T14:45:25.145Z,1.30
2022-11-23T14:50:55.499Z,1.13
2022-11-23T14:56:25.459Z,0.97
2022-11-23T15:01:51.569Z,1.13
2022-11-23T15:07:18.652Z,1.70
2022-11-23T15:12:43.694Z,1.10
2022-11-23T15:18:08.321Z,1.23
2022-11-23T15:23:36.151Z,1.20
2022-11-23T15:28:59.596Z,1.57
2022-11-23T15:34:24.378Z,1.30
2022-11-23T15:39:48.402Z,1.40
2022-11-23T15:45:39.379Z,1.53
2022-11-23T15:51:05.413Z,1.23
2022-11-23T15:56:31.034Z,1.63
2022-11-23T16:01:54.580Z,1.70
2022-11-23T16:07:21.478Z,1.87
2022-11-23T16:12:49.806Z,1.00
2022-11-23T16:18:21.865Z,1.60
2022-11-23T16:23:49.184Z,1.70
2022-11-23T16:29:22.467Z,2.40
2022-11-23T16:34:45.629Z,2.23
2022-11-23T16:40:11.603Z,2.40
2022-11-23T16:45:34.854Z,3.17
2022-11-23T16:50:58.691Z,2.60
2022-11-23T16:56:24.157Z,3.47
2022-11-23T17:01:53.953Z,3.77
2022-11-23T17:07:20.061Z,4.57
2022-11-23T17:12:48.864Z,4.33
2022-11-23T17:18:14.369Z,4.77
2022-11-23T17:23:39.965Z,4.80
2022-11-23T17:29:06.490Z,5.10
2022-11-23T17:34:29.694Z,4.30
2022-11-23T17:39:52.878Z,5.30
2022-11-23T17:45:18.026Z,5.30
2022-11-23T17:50:41.234Z,5.13
2022-11-23T17:56:04.480Z,5.77
2022-11-23T18:01:29.607Z,5.87
2022-11-23T18:06:52.710Z,6.20
2022-11-23T18:12:15.876Z,6.17
2022-11-23T18:17:40.654Z,5.67
2022-11-23T18:23:04.046Z,7.10
2022-11-23T18:28:27.476Z,6.40
2022-11-23T18:33:52.002Z,5.40
2022-11-23T18:39:15.093Z,6.10
2022-11-23T18:44:38.247Z,5.87
2022-11-23T18:50:06.483Z,6.70
2022-11-23T18:55:30.079Z,6.27
2022-11-23T19:00:53.278Z,5.63
2022-11-23T19:06:19.239Z,6.13
2022-11-23T19:11:42.508Z,5.87
2022-11-23T19:17:05.673Z,6.30
2022-11-23T19:22:30.228Z,6.00
2022-11-23T19:27:53.428Z,5.30
2022-11-23T19:33:16.656Z,5.37
2022-11-23T19:38:41.320Z,6.77
2022-11-23T19:44:05.106Z,4.90
2022-11-23T19:55:15.130Z,5.57
2022-11-23T20:00:39.747Z,4.10
2022-11-23T20:06:04.362Z,4.50
2022-11-23T20:11:30.530Z,5.20
2022-11-23T20:16:53.672Z,5.07
2022-11-23T20:22:16.824Z,5.90
2022-11-23T20:27:41.807Z,5.00
2022-11-23T20:33:05.241Z,4.30
2022-11-23T20:38:28.347Z,4.50
2022-11-23T20:43:54.574Z,4.70
2022-11-23T20:49:18.322Z,5.97
2022-11-23T20:54:41.610Z,4.80
2022-11-23T21:00:07.454Z,6.37
2022-11-23T21:05:30.622Z,4.30
2022-11-23T21:11:11.535Z,4.57
2022-11-23T21:16:37.393Z,3.97
2022-11-23T21:22:05.438Z,4.70
2022-11-23T21:27:28.651Z,3.97
2022-11-23T21:32:53.271Z,3.60
2022-11-23T21:38:16.368Z,7.27
2022-11-23T21:43:39.509Z,4.47
2022-11-23T21:49:04.412Z,4.17
2022-11-23T21:54:27.920Z,4.60
2022-11-23T21:59:51.065Z,5.43
2022-11-23T22:05:15.870Z,3.77
2022-11-23T22:11:04.551Z,4.90
2022-11-23T22:16:29.817Z,4.10
2022-11-23T22:21:54.501Z,4.10
2022-11-23T22:27:17.785Z,3.87
2022-11-23T22:32:41.069Z,4.00
2022-11-23T22:38:05.709Z,4.17
2022-11-23T22:43:29.053Z,4.83
2022-11-23T22:48:53.179Z,4.20
2022-11-23T22:54:17.981Z,4.87
2022-11-23T22:59:41.231Z,6.17
2022-11-23T23:05:04.868Z,4.00
2022-11-23T23:10:29.616Z,5.97
2022-11-23T23:16:01.075Z,6.13
2022-11-23T23:21:25.319Z,4.27
2022-11-23T23:26:51.117Z,4.13
2022-11-23T23:32:14.547Z,4.40
2022-11-23T23:37:37.773Z,4.73
2022-11-23T23:43:02.407Z,4.10
2022-11-23T23:48:26.106Z,4.10
2022-11-23T23:53:50.924Z,5.23
2022-11-23T23:59:15.758Z,5.20
